Date,TemperatureHighF,TemperatureAvgF,TemperatureLowF,DewpointHighF,DewpointAvgF,DewpointLowF,HumidityHigh,HumidityAvg,HumidityLow,PressureMaxIn,PressureMinIn,WindSpeedMaxMPH,WindSpeedAvgMPH,GustSpeedMaxMPH,PrecipitationSumIn
2013-12-1,75.3,66.2,59.0,64.5,61.5,56.8,94,85,69,30.18,29.96,11,3,11,0.00
2013-12-2,74.0,65.4,59.2,65.6,62.2,57.8,96,90,74,29.96,29.71,12,3,12,0.00
2013-12-3,73.2,66.6,62.2,67.0,63.9,60.7,96,91,81,29.74,29.62,14,6,14,0.01
2013-12-4,74.7,68.6,65.4,70.6,66.9,64.2,97,94,86,29.78,29.67,13,6,13,0.01
2013-12-5,72.3,62.1,44.4,70.4,60.5,41.7,98,94,87,29.96,29.76,20,8,20,0.00
2013-12-6,47.2,42.1,37.7,41.7,37.9,32.7,94,85,74,30.33,29.95,24,15,24,0.00
2013-12-7,37.7,36.2,35.4,33.9,32.4,31.1,90,86,82,30.39,30.24,17,10,17,0.00
2013-12-8,47.3,41.4,36.2,45.4,38.8,33.3,94,90,87,30.24,30.02,12,7,12,0.00
2013-12-9,52.3,48.7,43.3,51.2,47.5,41.2,97,96,93,30.24,29.98,17,10,17,0.03
2013-12-10,47.0,42.7,38.1,41.1,34.3,31.4,94,73,56,30.44,30.24,24,11,24,0.00
2013-12-11,52.9,48.8,45.3,46.1,41.7,36.1,80,76,69,30.45,30.27,13,6,13,0.00
2013-12-12,53.3,50.0,46.0,45.0,41.9,39.9,81,74,64,30.51,30.28,20,9,20,0.00
2013-12-13,63.8,55.3,48.9,59.4,50.6,42.1,94,84,77,30.28,29.84,12,5,12,0.00
2013-12-14,67.3,56.8,47.6,54.5,48.7,39.8,91,75,46,30.28,29.84,21,11,21,0.00
2013-12-15,54.7,47.8,42.9,45.4,37.7,34.0,89,69,46,30.41,30.27,18,6,18,0.00
2013-12-16,60.3,52.0,43.3,51.7,45.8,38.7,93,80,56,30.32,30.21,9,3,9,0.00
2013-12-17,62.4,56.7,48.5,56.5,52.6,46.7,95,87,73,30.30,30.21,12,4,12,0.01
2013-12-18,67.4,60.9,52.2,58.9,55.5,50.4,95,83,67,30.26,30.05,12,4,13,0.00
2013-12-19,69.2,65.0,62.5,64.6,61.9,58.3,96,90,84,30.05,29.81,16,8,16,0.00
2013-12-20,70.7,65.7,61.8,67.5,64.2,60.6,97,95,89,29.84,29.64,20,10,20,0.01
2013-12-21,75.1,66.4,61.0,68.9,62.9,57.4,97,89,67,29.77,29.55,20,8,20,0.00
2013-12-22,69.4,62.0,49.6,58.5,51.8,37.7,90,71,42,30.29,29.76,25,10,25,0.00
2013-12-23,54.9,48.2,42.1,43.2,36.3,31.9,74,64,44,30.49,30.29,18,8,18,0.00
2013-12-24,60.7,54.6,46.3,52.5,46.3,37.6,85,74,63,30.48,30.22,14,6,14,0.00
2013-12-25,68.0,60.1,55.6,59.2,56.0,52.9,95,87,72,30.27,30.17,14,6,14,0.00
2013-12-26,57.7,54.9,52.0,56.3,51.0,47.6,95,87,75,30.33,30.24,20,11,20,0.11
2013-12-27,54.8,53.1,51.2,50.5,49.5,48.0,93,88,80,30.36,30.27,15,8,15,0.09
2013-12-28,57.0,52.8,50.6,49.6,44.2,37.2,88,73,48,30.27,30.02,10,4,10,0.00
2013-12-29,60.4,55.6,48.6,55.8,50.4,45.7,91,83,64,30.08,29.97,12,3,12,0.00
2013-12-30,59.5,45.2,41.8,55.0,40.0,37.3,87,82,76,30.36,30.06,21,12,21,0.10
2013-12-31,47.8,44.7,43.2,44.3,39.7,37.4,88,83,76,30.41,30.23,13,6,13,0.07